createdAt,value
2023-02-21T00:02:58.958Z,2.20
2023-02-21T00:08:19.740Z,1.80
2023-02-21T00:13:40.515Z,1.70
2023-02-21T00:19:01.600Z,1.70
2023-02-21T00:24:23.041Z,1.60
2023-02-21T00:29:44.016Z,1.40
2023-02-21T00:35:04.910Z,1.77
2023-02-21T00:40:32.280Z,1.63
2023-02-21T00:45:53.375Z,1.43
2023-02-21T00:51:14.763Z,1.60
2023-02-21T00:56:35.528Z,1.43
2023-02-21T01:01:56.587Z,1.60
2023-02-21T01:07:17.378Z,1.40
2023-02-21T01:12:38.099Z,1.50
2023-02-21T01:17:58.704Z,1.50
2023-02-21T01:23:19.706Z,1.53
2023-02-21T01:28:40.490Z,1.40
2023-02-21T01:34:01.870Z,1.60
2023-02-21T01:39:22.702Z,1.57
2023-02-21T01:44:56.110Z,1.60
2023-02-21T01:50:20.001Z,1.53
2023-02-21T01:55:41.574Z,1.60
2023-02-21T02:01:03.685Z,1.47
2023-02-21T02:06:29.434Z,1.50
2023-02-21T02:12:09.940Z,1.67
2023-02-21T02:17:47.973Z,1.53
2023-02-21T02:23:18.045Z,1.70
2023-02-21T02:29:00.021Z,1.47
2023-02-21T02:34:21.067Z,1.63
2023-02-21T02:39:32.293Z,1.50
2023-02-21T02:44:50.735Z,1.77
2023-02-21T02:49:55.834Z,1.67
2023-02-21T02:55:39.497Z,1.90
2023-02-21T03:00:56.053Z,1.47
2023-02-21T03:06:34.216Z,1.33
2023-02-21T03:11:56.408Z,1.33
2023-02-21T03:17:09.420Z,1.40
2023-02-21T03:22:16.387Z,1.83
2023-02-21T03:27:22.338Z,1.50
2023-02-21T03:32:42.750Z,1.50
2023-02-21T03:37:54.299Z,1.50
2023-02-21T03:43:07.359Z,1.57
2023-02-21T03:48:31.591Z,1.90
2023-02-21T03:53:38.526Z,2.20
2023-02-21T03:58:42.399Z,1.80
2023-02-21T04:03:44.819Z,1.90
2023-02-21T04:08:47.006Z,2.10
2023-02-21T04:13:49.802Z,2.10
2023-02-21T04:18:53.256Z,2.40
2023-02-21T04:23:56.185Z,2.20
2023-02-21T04:29:03.134Z,2.20
2023-02-21T04:34:11.754Z,2.20
2023-02-21T04:39:17.453Z,2.03
2023-02-21T04:44:20.376Z,2.17
2023-02-21T04:49:26.202Z,2.07
2023-02-21T04:54:28.376Z,2.23
2023-02-21T04:59:30.394Z,2.30
2023-02-21T05:04:32.789Z,2.03
2023-02-21T05:09:35.363Z,2.40
2023-02-21T05:14:41.110Z,2.30
2023-02-21T05:19:43.600Z,2.40
2023-02-21T05:24:47.399Z,2.70
2023-02-21T05:29:52.786Z,2.67
2023-02-21T05:34:54.932Z,2.73
2023-02-21T05:39:57.139Z,2.77
2023-02-21T05:44:59.882Z,2.50
2023-02-21T05:50:02.781Z,2.60
2023-02-21T05:55:05.586Z,2.27
2023-02-21T06:00:13.447Z,2.17
2023-02-21T06:05:15.705Z,2.33
2023-02-21T06:10:18.824Z,2.60
2023-02-21T06:15:20.889Z,2.70
2023-02-21T06:20:23.405Z,2.70
2023-02-21T06:25:25.419Z,5.13
2023-02-21T06:30:27.698Z,2.77
2023-02-21T06:35:29.928Z,2.63
2023-02-21T06:40:32.181Z,2.57
2023-02-21T06:45:34.687Z,2.80
2023-02-21T06:50:37.123Z,3.60
2023-02-21T06:55:39.221Z,3.03
2023-02-21T07:00:41.550Z,2.80
2023-02-21T07:05:44.067Z,3.33
2023-02-21T07:10:46.199Z,3.20
2023-02-21T07:15:48.393Z,3.00
2023-02-21T07:20:50.519Z,3.17
2023-02-21T07:25:52.763Z,2.97
2023-02-21T07:30:55.031Z,2.97
2023-02-21T07:35:57.159Z,3.70
2023-02-21T07:41:04.256Z,3.20
2023-02-21T07:46:12.106Z,3.43
2023-02-21T07:51:14.652Z,3.37
2023-02-21T07:56:16.971Z,4.37
2023-02-21T08:01:25.000Z,4.13
2023-02-21T08:06:27.189Z,4.50
2023-02-21T08:11:29.455Z,3.70
2023-02-21T08:16:34.439Z,3.33
2023-02-21T08:21:37.147Z,3.63
2023-02-21T08:26:41.213Z,4.13
2023-02-21T08:31:44.866Z,4.00
2023-02-21T08:36:47.062Z,4.23
2023-02-21T08:41:50.363Z,3.77
2023-02-21T08:46:52.550Z,3.93
2023-02-21T08:51:55.202Z,3.90
2023-02-21T08:56:58.870Z,3.10
2023-02-21T09:02:02.133Z,3.93
2023-02-21T09:07:04.518Z,4.73
2023-02-21T09:12:11.211Z,4.40
2023-02-21T09:17:15.122Z,4.17
2023-02-21T09:22:18.646Z,4.17
2023-02-21T09:27:20.828Z,4.20
2023-02-21T09:32:23.558Z,3.67
2023-02-21T09:37:27.220Z,3.83
2023-02-21T09:42:32.199Z,3.70
2023-02-21T09:47:38.409Z,3.73
2023-02-21T09:52:42.501Z,3.10
2023-02-21T09:57:45.024Z,3.37
2023-02-21T10:03:16.721Z,3.80
2023-02-21T10:08:44.753Z,3.10
2023-02-21T10:14:02.963Z,3.00
2023-02-21T10:19:11.357Z,3.20
2023-02-21T10:24:17.447Z,3.53
2023-02-21T10:29:35.797Z,3.30
2023-02-21T10:34:38.536Z,2.33
2023-02-21T10:39:46.639Z,3.10
2023-02-21T10:44:49.896Z,2.73
2023-02-21T10:50:12.181Z,2.60
2023-02-21T10:55:32.239Z,3.00
2023-02-21T11:00:47.894Z,3.83
2023-02-21T11:05:57.815Z,3.60
2023-02-21T11:10:59.945Z,3.50
2023-02-21T11:16:22.229Z,3.17
2023-02-21T11:21:24.512Z,3.20
2023-02-21T11:26:30.817Z,3.23
2023-02-21T11:31:34.296Z,3.90
2023-02-21T11:36:41.708Z,3.60
2023-02-21T11:41:58.944Z,3.40
2023-02-21T11:47:35.529Z,3.03
2023-02-21T11:53:12.768Z,2.73
2023-02-21T11:58:42.111Z,3.90
2023-02-21T12:04:11.467Z,3.13
2023-02-21T12:09:44.293Z,2.93
2023-02-21T12:15:02.475Z,3.00
2023-02-21T12:20:21.348Z,2.70
2023-02-21T12:26:02.178Z,2.50
2023-02-21T12:31:40.867Z,2.37
2023-02-21T12:37:21.830Z,2.40
2023-02-21T12:43:19.212Z,2.23
2023-02-21T12:48:24.335Z,2.30
2023-02-21T12:53:57.359Z,1.90
2023-02-21T12:59:13.749Z,2.30
2023-02-21T13:04:47.543Z,1.97
2023-02-21T13:10:00.522Z,2.20
2023-02-21T13:15:19.549Z,1.90
2023-02-21T13:20:26.746Z,2.10
2023-02-21T13:26:34.653Z,1.90
2023-02-21T13:31:43.155Z,2.70
2023-02-21T13:36:48.033Z,2.07
2023-02-21T13:41:58.305Z,1.67
2023-02-21T13:47:14.080Z,1.60
2023-02-21T13:52:24.878Z,1.50
2023-02-21T13:57:37.236Z,1.70
2023-02-21T14:03:18.296Z,2.27
2023-02-21T14:08:38.197Z,1.73
2023-02-21T14:14:02.577Z,2.00
2023-02-21T14:19:12.949Z,1.70
2023-02-21T14:24:32.658Z,1.70
2023-02-21T14:29:39.312Z,1.70
2023-02-21T14:34:49.988Z,1.47
2023-02-21T14:40:01.301Z,1.57
2023-02-21T14:45:13.034Z,1.70
2023-02-21T14:50:56.183Z,1.97
2023-02-21T14:56:33.066Z,1.80
2023-02-21T15:02:04.391Z,1.63
2023-02-21T15:07:37.204Z,1.60
2023-02-21T15:13:03.358Z,1.70
2023-02-21T15:18:09.879Z,1.43
2023-02-21T15:23:21.451Z,1.50
2023-02-21T15:28:32.864Z,1.70
2023-02-21T15:33:43.060Z,1.53
2023-02-21T15:38:45.540Z,1.60
2023-02-21T15:43:53.992Z,1.70
2023-02-21T15:49:00.999Z,1.70
2023-02-21T15:54:23.867Z,1.50
2023-02-21T15:59:28.157Z,2.53
2023-02-21T16:04:37.373Z,2.00
2023-02-21T16:09:46.219Z,1.70
2023-02-21T16:15:19.740Z,1.63
2023-02-21T16:20:29.980Z,2.20
2023-02-21T16:25:33.622Z,2.07
2023-02-21T16:30:39.491Z,1.83
2023-02-21T16:35:43.262Z,1.80
2023-02-21T16:40:46.916Z,1.97
2023-02-21T16:45:51.752Z,2.00
2023-02-21T16:50:55.035Z,2.20
2023-02-21T16:55:59.772Z,2.47
2023-02-21T17:01:07.463Z,2.40
2023-02-21T17:06:18.981Z,2.73
2023-02-21T17:11:21.531Z,2.77
2023-02-21T17:16:24.395Z,2.70
2023-02-21T17:21:27.010Z,2.03
2023-02-21T17:26:29.430Z,1.87
2023-02-21T17:31:32.365Z,1.90
2023-02-21T17:36:34.948Z,2.10
2023-02-21T17:41:37.825Z,1.93
2023-02-21T17:46:40.609Z,2.10
2023-02-21T17:51:43.161Z,2.17
2023-02-21T17:56:45.682Z,2.53
2023-02-21T18:01:48.482Z,2.30
2023-02-21T18:06:50.971Z,6.97
2023-02-21T18:11:55.484Z,2.80
2023-02-21T18:16:58.380Z,2.60
2023-02-21T18:22:06.311Z,2.40
2023-02-21T18:27:10.254Z,2.53
2023-02-21T18:32:12.830Z,3.30
2023-02-21T18:37:15.431Z,4.40
2023-02-21T18:42:18.515Z,14.80
2023-02-21T18:47:21.258Z,30.57
2023-02-21T18:52:23.762Z,26.07
2023-02-21T18:57:26.210Z,35.90
2023-02-21T19:02:28.776Z,41.77
2023-02-21T19:07:32.192Z,36.03
2023-02-21T19:12:34.793Z,20.27
2023-02-21T19:17:37.574Z,17.30
2023-02-21T19:22:40.417Z,14.57
2023-02-21T19:27:44.095Z,12.97
2023-02-21T19:32:47.054Z,9.63
2023-02-21T19:37:49.547Z,7.40
2023-02-21T19:42:52.363Z,9.70
2023-02-21T19:47:55.494Z,7.93
2023-02-21T19:53:01.653Z,7.40
2023-02-21T19:58:07.658Z,7.40
2023-02-21T20:03:11.177Z,5.30
2023-02-21T20:08:13.891Z,3.37
2023-02-21T20:13:16.527Z,3.27
2023-02-21T20:18:19.629Z,4.27
2023-02-21T20:23:23.525Z,4.00
2023-02-21T20:28:39.609Z,4.13
2023-02-21T20:33:47.396Z,4.03
2023-02-21T20:38:50.278Z,4.00
2023-02-21T20:43:53.152Z,4.67
2023-02-21T20:48:59.032Z,4.90
2023-02-21T20:54:02.279Z,5.17
2023-02-21T20:59:07.964Z,4.90
2023-02-21T21:04:13.220Z,4.67
2023-02-21T21:09:18.211Z,4.47
2023-02-21T21:14:20.552Z,4.40
2023-02-21T21:19:33.198Z,3.93
2023-02-21T21:24:37.978Z,4.73
2023-02-21T21:29:43.248Z,4.30
2023-02-21T21:34:49.086Z,4.90
2023-02-21T21:39:55.889Z,5.83
2023-02-21T21:44:58.096Z,4.57
2023-02-21T21:50:02.579Z,4.30
2023-02-21T21:55:09.584Z,4.60
2023-02-21T22:00:22.414Z,4.67
2023-02-21T22:05:32.839Z,4.43
2023-02-21T22:10:36.014Z,4.47
2023-02-21T22:15:38.914Z,4.20
2023-02-21T22:20:42.937Z,4.03
2023-02-21T22:25:45.045Z,4.70
2023-02-21T22:30:47.294Z,4.80
2023-02-21T22:35:49.918Z,4.37
2023-02-21T22:40:52.346Z,4.43
2023-02-21T22:45:58.266Z,3.70
2023-02-21T22:51:00.595Z,4.80
2023-02-21T22:56:04.025Z,4.23
2023-02-21T23:01:08.574Z,4.73
2023-02-21T23:06:10.804Z,4.33
2023-02-21T23:11:24.008Z,4.20
2023-02-21T23:16:27.932Z,4.47
2023-02-21T23:21:30.623Z,4.13
2023-02-21T23:26:32.769Z,4.43
2023-02-21T23:31:34.920Z,4.40
2023-02-21T23:36:41.345Z,4.50
2023-02-21T23:41:49.219Z,4.63
2023-02-21T23:46:51.498Z,4.07
2023-02-21T23:51:53.832Z,3.70
2023-02-21T23:57:00.659Z,4.30
